首页
METAR-TAF:

METAR-TAF

机场 :

莫斯塔爾, 波斯尼亚和黑塞哥维那

纬度: 43-21N, 经度: 017-48E, 海拔: 108米

当前天气观测

该预报发布于35分钟前的07:30 UTC
风速4节,风向
温度 8°C
湿度 93%
气压 1008 hPa
能见度10公里或以上
少量云层高于500英尺
多云层高于5000英尺

METAR: LQMO 100730Z 10004KT 9999 FEW005 BKN050 08/07 Q1008

时间: 09:05 (08:05 UTC)

预报

该预报发布于3小时和5分钟前的05:00 UTC
预报有效从10日的 06点(UTC)到 11日的 06点(UTC)
风速5节,风向南转南东
能见度10公里或以上
散云层高于3500英尺
多云层高于5000英尺
短暂存在
从 10日的 06点(UTC)到 10日的 12点(UTC)
能見度: 5000
成为
从 10日的 06点(UTC)到 10日的 09点(UTC)
风速12节,风向
几率 40% :
短暂存在
从 10日的 10点(UTC)到 11日的 03点(UTC)
风速15节,风向北转东北,有时为30节阵风
几率 30% :
短暂存在
从 10日的 15点(UTC)到 10日的 23点(UTC)
风速20节,风向北转东北,有时为45节阵风

TAF: LQMO 100500Z 1006/1106 15005KT 9999 SCT035 BKN050 TX09/1006Z TN05/1106Z TEMPO 1006/1012 5000 RA BECMG 1006/1009 01012KT PROB40 TEMPO 1010/1103 03015G30KT PROB30 TEMPO 1015/1023 03020G45KT

超过4000个机场的气象观测和天气预报(METAR&TAF报告)。

可查询的气象台以黄色和红色小点在地图上表示。

将鼠标移到小点上方,可查看气象台名称。

然后点击查看天气观测和预报。

如需切换地图:点击带黑十字的绿色按钮放大地图;点击带横线的绿色按钮缩小地图;或者点击绿色箭头查看邻近地区的地图。


METAR-TAF: